sensor_id;sensor_type;location;lat;lon;timestamp;temperature;humidity
19085;DHT22;9675;51.538;6.728;2023-12-22T00:02:19;7.90;99.90
19085;DHT22;9675;51.538;6.728;2023-12-22T00:04:46;7.90;99.90
19085;DHT22;9675;51.538;6.728;2023-12-22T00:07:13;7.90;99.90
19085;DHT22;9675;51.538;6.728;2023-12-22T00:09:40;7.90;99.90
19085;DHT22;9675;51.538;6.728;2023-12-22T00:12:09;7.90;99.90
19085;DHT22;9675;51.538;6.728;2023-12-22T00:14:36;7.90;99.90
19085;DHT22;9675;51.538;6.728;2023-12-22T00:17:06;7.90;99.90
19085;DHT22;9675;51.538;6.728;2023-12-22T00:19:33;7.80;99.90
19085;DHT22;9675;51.538;6.728;2023-12-22T00:22:00;7.80;99.90
19085;DHT22;9675;51.538;6.728;2023-12-22T00:24:29;7.80;99.90
19085;DHT22;9675;51.538;6.728;2023-12-22T00:26:56;7.80;99.90
19085;DHT22;9675;51.538;6.728;2023-12-22T00:29:24;7.80;99.90
19085;DHT22;9675;51.538;6.728;2023-12-22T00:31:53;7.80;99.90
19085;DHT22;9675;51.538;6.728;2023-12-22T00:34:21;7.80;99.90
19085;DHT22;9675;51.538;6.728;2023-12-22T00:36:49;7.80;99.90
19085;DHT22;9675;51.538;6.728;2023-12-22T00:39:16;7.80;99.90
19085;DHT22;9675;51.538;6.728;2023-12-22T00:41:43;7.80;99.90
19085;DHT22;9675;51.538;6.728;2023-12-22T00:44:10;7.70;99.90
19085;DHT22;9675;51.538;6.728;2023-12-22T00:46:38;7.70;99.90
19085;DHT22;9675;51.538;6.728;2023-12-22T00:49:05;7.70;99.90
19085;DHT22;9675;51.538;6.728;2023-12-22T00:51:32;7.70;99.90
19085;DHT22;9675;51.538;6.728;2023-12-22T00:54:00;7.70;99.90
19085;DHT22;9675;51.538;6.728;2023-12-22T00:56:27;7.70;99.90
19085;DHT22;9675;51.538;6.728;2023-12-22T00:58:54;7.70;99.90
19085;DHT22;9675;51.538;6.728;2023-12-22T01:01:21;7.70;99.90
19085;DHT22;9675;51.538;6.728;2023-12-22T01:03:49;7.70;99.90
19085;DHT22;9675;51.538;6.728;2023-12-22T01:06:16;7.70;99.90
19085;DHT22;9675;51.538;6.728;2023-12-22T01:08:43;7.70;99.90
19085;DHT22;9675;51.538;6.728;2023-12-22T01:11:10;7.80;99.90
19085;DHT22;9675;51.538;6.728;2023-12-22T01:13:37;7.70;99.90
19085;DHT22;9675;51.538;6.728;2023-12-22T01:16:04;7.70;99.90
19085;DHT22;9675;51.538;6.728;2023-12-22T01:18:32;7.60;99.90
19085;DHT22;9675;51.538;6.728;2023-12-22T01:21:00;7.60;99.90
19085;DHT22;9675;51.538;6.728;2023-12-22T01:23:28;7.60;99.90
19085;DHT22;9675;51.538;6.728;2023-12-22T01:25:55;7.70;99.90
19085;DHT22;9675;51.538;6.728;2023-12-22T01:28:22;7.70;99.90
19085;DHT22;9675;51.538;6.728;2023-12-22T01:30:49;7.70;99.90
19085;DHT22;9675;51.538;6.728;2023-12-22T01:33:16;7.60;99.90
19085;DHT22;9675;51.538;6.728;2023-12-22T01:35:43;7.60;99.90
19085;DHT22;9675;51.538;6.728;2023-12-22T01:38:12;7.50;99.90
19085;DHT22;9675;51.538;6.728;2023-12-22T01:40:39;7.50;99.90
19085;DHT22;9675;51.538;6.728;2023-12-22T01:43:06;7.50;99.90
19085;DHT22;9675;51.538;6.728;2023-12-22T01:45:33;7.50;99.90
19085;DHT22;9675;51.538;6.728;2023-12-22T01:48:00;7.50;99.90
19085;DHT22;9675;51.538;6.728;2023-12-22T01:50:28;7.50;99.90
19085;DHT22;9675;51.538;6.728;2023-12-22T01:52:55;7.50;99.90
19085;DHT22;9675;51.538;6.728;2023-12-22T01:55:24;7.50;99.90
19085;DHT22;9675;51.538;6.728;2023-12-22T01:57:51;7.40;99.90
19085;DHT22;9675;51.538;6.728;2023-12-22T02:00:18;7.40;99.90
19085;DHT22;9675;51.538;6.728;2023-12-22T02:02:47;7.40;99.90
19085;DHT22;9675;51.538;6.728;2023-12-22T02:05:14;7.40;99.90
19085;DHT22;9675;51.538;6.728;2023-12-22T02:07:42;7.40;99.90
19085;DHT22;9675;51.538;6.728;2023-12-22T02:10:10;7.40;99.90
19085;DHT22;9675;51.538;6.728;2023-12-22T02:12:38;7.40;99.90
19085;DHT22;9675;51.538;6.728;2023-12-22T02:15:06;7.30;99.90
19085;DHT22;9675;51.538;6.728;2023-12-22T02:17:43;7.30;99.90
19085;DHT22;9675;51.538;6.728;2023-12-22T02:20:15;7.30;99.90
19085;DHT22;9675;51.538;6.728;2023-12-22T02:22:44;7.30;99.90
19085;DHT22;9675;51.538;6.728;2023-12-22T02:25:11;7.30;99.90
19085;DHT22;9675;51.538;6.728;2023-12-22T02:27:42;7.30;99.90
19085;DHT22;9675;51.538;6.728;2023-12-22T02:30:15;7.30;99.90
19085;DHT22;9675;51.538;6.728;2023-12-22T02:32:53;7.30;99.90
19085;DHT22;9675;51.538;6.728;2023-12-22T02:35:25;7.30;99.90
19085;DHT22;9675;51.538;6.728;2023-12-22T02:37:57;7.30;99.90
19085;DHT22;9675;51.538;6.728;2023-12-22T02:40:26;7.30;99.90
19085;DHT22;9675;51.538;6.728;2023-12-22T02:42:54;7.30;99.90
19085;DHT22;9675;51.538;6.728;2023-12-22T02:45:21;7.20;99.90
19085;DHT22;9675;51.538;6.728;2023-12-22T02:47:49;7.30;99.90
19085;DHT22;9675;51.538;6.728;2023-12-22T02:50:16;7.20;99.90
19085;DHT22;9675;51.538;6.728;2023-12-22T02:52:43;7.20;99.90
19085;DHT22;9675;51.538;6.728;2023-12-22T02:55:12;7.20;99.90
19085;DHT22;9675;51.538;6.728;2023-12-22T02:57:39;7.20;99.90
19085;DHT22;9675;51.538;6.728;2023-12-22T03:00:07;7.20;99.90
19085;DHT22;9675;51.538;6.728;2023-12-22T03:02:35;7.20;99.90
19085;DHT22;9675;51.538;6.728;2023-12-22T03:05:02;7.10;99.90
19085;DHT22;9675;51.538;6.728;2023-12-22T03:07:30;7.20;99.90
19085;DHT22;9675;51.538;6.728;2023-12-22T03:09:57;7.20;99.90
19085;DHT22;9675;51.538;6.728;2023-12-22T03:12:25;7.20;99.90
19085;DHT22;9675;51.538;6.728;2023-12-22T03:14:52;7.10;99.90
19085;DHT22;9675;51.538;6.728;2023-12-22T03:17:18;7.10;99.90
19085;DHT22;9675;51.538;6.728;2023-12-22T03:19:45;7.10;99.90
19085;DHT22;9675;51.538;6.728;2023-12-22T03:22:12;7.10;99.90
19085;DHT22;9675;51.538;6.728;2023-12-22T03:24:39;7.10;99.90
19085;DHT22;9675;51.538;6.728;2023-12-22T03:27:06;7.10;99.90
19085;DHT22;9675;51.538;6.728;2023-12-22T03:29:34;7.10;99.90
19085;DHT22;9675;51.538;6.728;2023-12-22T03:32:02;7.10;99.90
19085;DHT22;9675;51.538;6.728;2023-12-22T03:34:29;7.10;99.90
19085;DHT22;9675;51.538;6.728;2023-12-22T03:36:56;7.10;99.90
19085;DHT22;9675;51.538;6.728;2023-12-22T03:39:23;7.10;99.90
19085;DHT22;9675;51.538;6.728;2023-12-22T03:41:50;7.10;99.90
19085;DHT22;9675;51.538;6.728;2023-12-22T03:44:17;7.10;99.90
19085;DHT22;9675;51.538;6.728;2023-12-22T03:46:45;7.10;99.90
19085;DHT22;9675;51.538;6.728;2023-12-22T03:49:12;7.00;99.90
19085;DHT22;9675;51.538;6.728;2023-12-22T03:51:39;7.00;99.90
19085;DHT22;9675;51.538;6.728;2023-12-22T03:54:07;7.10;99.90
19085;DHT22;9675;51.538;6.728;2023-12-22T03:56:34;7.00;99.90
19085;DHT22;9675;51.538;6.728;2023-12-22T03:59:01;7.10;99.90
19085;DHT22;9675;51.538;6.728;2023-12-22T04:01:28;7.00;99.90
19085;DHT22;9675;51.538;6.728;2023-12-22T04:03:56;7.00;99.90
19085;DHT22;9675;51.538;6.728;2023-12-22T04:06:23;7.00;99.90
19085;DHT22;9675;51.538;6.728;2023-12-22T04:08:50;7.00;99.90
19085;DHT22;9675;51.538;6.728;2023-12-22T04:11:18;7.00;99.90
19085;DHT22;9675;51.538;6.728;2023-12-22T04:13:45;7.00;99.90
19085;DHT22;9675;51.538;6.728;2023-12-22T04:16:12;7.00;99.90
19085;DHT22;9675;51.538;6.728;2023-12-22T04:18:39;7.00;99.90
19085;DHT22;9675;51.538;6.728;2023-12-22T04:21:07;7.00;99.90
19085;DHT22;9675;51.538;6.728;2023-12-22T04:23:34;7.00;99.90
19085;DHT22;9675;51.538;6.728;2023-12-22T04:26:02;7.00;99.90
19085;DHT22;9675;51.538;6.728;2023-12-22T04:28:29;7.00;99.90
19085;DHT22;9675;51.538;6.728;2023-12-22T04:30:56;7.10;99.90
19085;DHT22;9675;51.538;6.728;2023-12-22T04:33:23;7.00;99.90
19085;DHT22;9675;51.538;6.728;2023-12-22T04:35:50;7.00;99.90
19085;DHT22;9675;51.538;6.728;2023-12-22T04:38:18;7.00;99.90
19085;DHT22;9675;51.538;6.728;2023-12-22T04:40:45;7.00;99.90
19085;DHT22;9675;51.538;6.728;2023-12-22T04:43:12;7.00;99.90
19085;DHT22;9675;51.538;6.728;2023-12-22T04:45:39;7.00;99.90
19085;DHT22;9675;51.538;6.728;2023-12-22T04:48:07;7.00;99.90
19085;DHT22;9675;51.538;6.728;2023-12-22T04:50:34;7.00;99.90
19085;DHT22;9675;51.538;6.728;2023-12-22T04:53:01;7.00;99.90
19085;DHT22;9675;51.538;6.728;2023-12-22T04:55:29;7.00;99.90
19085;DHT22;9675;51.538;6.728;2023-12-22T04:57:56;7.00;99.90
19085;DHT22;9675;51.538;6.728;2023-12-22T05:00:24;7.00;99.90
19085;DHT22;9675;51.538;6.728;2023-12-22T05:02:52;7.00;99.90
19085;DHT22;9675;51.538;6.728;2023-12-22T05:05:19;7.00;99.90
19085;DHT22;9675;51.538;6.728;2023-12-22T05:07:46;7.00;99.90
19085;DHT22;9675;51.538;6.728;2023-12-22T05:10:13;7.00;99.90
19085;DHT22;9675;51.538;6.728;2023-12-22T05:12:41;7.00;99.90
19085;DHT22;9675;51.538;6.728;2023-12-22T05:15:09;7.00;99.90
19085;DHT22;9675;51.538;6.728;2023-12-22T05:17:36;7.00;99.90
19085;DHT22;9675;51.538;6.728;2023-12-22T05:20:04;6.90;99.90
19085;DHT22;9675;51.538;6.728;2023-12-22T05:22:32;7.00;99.90
19085;DHT22;9675;51.538;6.728;2023-12-22T05:24:59;7.00;99.90
19085;DHT22;9675;51.538;6.728;2023-12-22T05:27:26;6.90;99.90
19085;DHT22;9675;51.538;6.728;2023-12-22T05:29:55;6.90;99.90
19085;DHT22;9675;51.538;6.728;2023-12-22T05:32:26;6.90;99.90
19085;DHT22;9675;51.538;6.728;2023-12-22T05:34:53;6.90;99.90
19085;DHT22;9675;51.538;6.728;2023-12-22T05:37:20;6.90;99.90
19085;DHT22;9675;51.538;6.728;2023-12-22T05:39:47;6.90;99.90
19085;DHT22;9675;51.538;6.728;2023-12-22T05:42:14;6.90;99.90
19085;DHT22;9675;51.538;6.728;2023-12-22T05:44:41;6.90;99.90
19085;DHT22;9675;51.538;6.728;2023-12-22T05:47:10;6.90;99.90
19085;DHT22;9675;51.538;6.728;2023-12-22T05:49:39;6.90;99.90
19085;DHT22;9675;51.538;6.728;2023-12-22T05:52:07;6.90;99.90
19085;DHT22;9675;51.538;6.728;2023-12-22T05:54:35;6.90;99.90
19085;DHT22;9675;51.538;6.728;2023-12-22T05:57:03;6.90;99.90
19085;DHT22;9675;51.538;6.728;2023-12-22T05:59:32;6.90;99.90
19085;DHT22;9675;51.538;6.728;2023-12-22T06:02:00;6.90;99.90
19085;DHT22;9675;51.538;6.728;2023-12-22T06:04:29;6.90;99.90
19085;DHT22;9675;51.538;6.728;2023-12-22T06:06:56;6.90;99.90
19085;DHT22;9675;51.538;6.728;2023-12-22T06:09:24;6.90;99.90
19085;DHT22;9675;51.538;6.728;2023-12-22T06:11:51;6.90;99.90
19085;DHT22;9675;51.538;6.728;2023-12-22T06:14:18;6.90;99.90
19085;DHT22;9675;51.538;6.728;2023-12-22T06:16:45;6.90;99.90
19085;DHT22;9675;51.538;6.728;2023-12-22T06:19:12;6.90;99.90
19085;DHT22;9675;51.538;6.728;2023-12-22T06:21:41;6.90;99.90
19085;DHT22;9675;51.538;6.728;2023-12-22T06:24:08;6.90;99.90
19085;DHT22;9675;51.538;6.728;2023-12-22T06:26:35;6.90;99.90
19085;DHT22;9675;51.538;6.728;2023-12-22T06:29:02;6.90;99.90
19085;DHT22;9675;51.538;6.728;2023-12-22T06:31:30;7.00;99.90
19085;DHT22;9675;51.538;6.728;2023-12-22T06:33:57;6.90;99.90
19085;DHT22;9675;51.538;6.728;2023-12-22T06:36:27;6.90;99.90
19085;DHT22;9675;51.538;6.728;2023-12-22T06:38:57;6.90;99.90
19085;DHT22;9675;51.538;6.728;2023-12-22T06:41:26;6.90;99.90
19085;DHT22;9675;51.538;6.728;2023-12-22T06:43:54;6.90;99.90
19085;DHT22;9675;51.538;6.728;2023-12-22T06:46:24;6.90;99.90
19085;DHT22;9675;51.538;6.728;2023-12-22T06:48:52;6.90;99.90
19085;DHT22;9675;51.538;6.728;2023-12-22T06:51:21;6.90;99.90
19085;DHT22;9675;51.538;6.728;2023-12-22T06:53:49;6.90;99.90
19085;DHT22;9675;51.538;6.728;2023-12-22T06:56:19;6.90;99.90
19085;DHT22;9675;51.538;6.728;2023-12-22T06:58:47;6.90;99.90
19085;DHT22;9675;51.538;6.728;2023-12-22T07:01:19;6.80;99.90
19085;DHT22;9675;51.538;6.728;2023-12-22T07:03:46;6.80;99.90
19085;DHT22;9675;51.538;6.728;2023-12-22T07:06:14;6.80;99.90
19085;DHT22;9675;51.538;6.728;2023-12-22T07:08:57;6.80;99.90
19085;DHT22;9675;51.538;6.728;2023-12-22T07:11:44;6.80;99.90
19085;DHT22;9675;51.538;6.728;2023-12-22T07:14:11;6.80;99.90
19085;DHT22;9675;51.538;6.728;2023-12-22T07:16:40;6.80;99.90
19085;DHT22;9675;51.538;6.728;2023-12-22T07:19:08;6.70;99.90
19085;DHT22;9675;51.538;6.728;2023-12-22T07:21:36;6.80;99.90
19085;DHT22;9675;51.538;6.728;2023-12-22T07:24:04;6.80;99.90
19085;DHT22;9675;51.538;6.728;2023-12-22T07:26:32;6.80;99.90
19085;DHT22;9675;51.538;6.728;2023-12-22T07:29:00;6.80;99.90
19085;DHT22;9675;51.538;6.728;2023-12-22T07:31:27;6.80;99.90
19085;DHT22;9675;51.538;6.728;2023-12-22T07:33:54;6.80;99.90
19085;DHT22;9675;51.538;6.728;2023-12-22T07:36:21;6.80;99.90
19085;DHT22;9675;51.538;6.728;2023-12-22T07:38:48;6.80;99.90
19085;DHT22;9675;51.538;6.728;2023-12-22T07:41:15;6.90;99.90
19085;DHT22;9675;51.538;6.728;2023-12-22T07:43:42;6.90;99.90
19085;DHT22;9675;51.538;6.728;2023-12-22T07:46:16;6.90;99.90
19085;DHT22;9675;51.538;6.728;2023-12-22T07:48:44;6.90;99.90
19085;DHT22;9675;51.538;6.728;2023-12-22T07:51:11;6.90;99.90
19085;DHT22;9675;51.538;6.728;2023-12-22T07:53:38;6.90;99.90
19085;DHT22;9675;51.538;6.728;2023-12-22T07:56:06;6.90;99.90
19085;DHT22;9675;51.538;6.728;2023-12-22T07:58:33;7.00;99.90
19085;DHT22;9675;51.538;6.728;2023-12-22T08:01:00;7.00;99.90
19085;DHT22;9675;51.538;6.728;2023-12-22T08:03:29;7.00;99.90
19085;DHT22;9675;51.538;6.728;2023-12-22T08:05:56;7.00;99.90
19085;DHT22;9675;51.538;6.728;2023-12-22T08:08:23;7.00;99.90
19085;DHT22;9675;51.538;6.728;2023-12-22T08:10:50;7.00;99.90
19085;DHT22;9675;51.538;6.728;2023-12-22T08:13:17;7.00;99.90
19085;DHT22;9675;51.538;6.728;2023-12-22T08:15:44;7.00;99.90
19085;DHT22;9675;51.538;6.728;2023-12-22T08:18:11;7.00;99.90
19085;DHT22;9675;51.538;6.728;2023-12-22T08:20:40;7.10;99.90
19085;DHT22;9675;51.538;6.728;2023-12-22T08:23:07;7.10;99.90
19085;DHT22;9675;51.538;6.728;2023-12-22T08:25:34;7.10;99.90
19085;DHT22;9675;51.538;6.728;2023-12-22T08:28:01;7.10;99.90
19085;DHT22;9675;51.538;6.728;2023-12-22T08:30:29;7.20;99.90
19085;DHT22;9675;51.538;6.728;2023-12-22T08:32:56;7.20;99.90
19085;DHT22;9675;51.538;6.728;2023-12-22T08:35:23;7.20;99.90
19085;DHT22;9675;51.538;6.728;2023-12-22T08:37:51;7.20;99.90
19085;DHT22;9675;51.538;6.728;2023-12-22T08:40:18;7.20;99.90
19085;DHT22;9675;51.538;6.728;2023-12-22T08:42:50;7.20;99.90
19085;DHT22;9675;51.538;6.728;2023-12-22T08:45:20;7.20;99.90
19085;DHT22;9675;51.538;6.728;2023-12-22T08:47:47;7.20;99.90
19085;DHT22;9675;51.538;6.728;2023-12-22T08:50:14;7.30;99.90
19085;DHT22;9675;51.538;6.728;2023-12-22T08:52:41;7.30;99.90
19085;DHT22;9675;51.538;6.728;2023-12-22T08:55:09;7.30;99.90
19085;DHT22;9675;51.538;6.728;2023-12-22T08:57:36;7.30;99.90
19085;DHT22;9675;51.538;6.728;2023-12-22T09:00:05;7.40;99.90
19085;DHT22;9675;51.538;6.728;2023-12-22T09:02:33;7.40;99.90
19085;DHT22;9675;51.538;6.728;2023-12-22T09:05:00;7.40;99.90
19085;DHT22;9675;51.538;6.728;2023-12-22T09:07:27;7.40;99.90
19085;DHT22;9675;51.538;6.728;2023-12-22T09:09:54;7.40;99.90
19085;DHT22;9675;51.538;6.728;2023-12-22T09:12:22;7.40;99.90
19085;DHT22;9675;51.538;6.728;2023-12-22T09:14:50;7.40;99.90
19085;DHT22;9675;51.538;6.728;2023-12-22T09:17:17;7.40;99.90
19085;DHT22;9675;51.538;6.728;2023-12-22T09:19:44;7.40;99.90
19085;DHT22;9675;51.538;6.728;2023-12-22T09:22:11;7.40;99.90
19085;DHT22;9675;51.538;6.728;2023-12-22T09:24:38;7.30;99.90
19085;DHT22;9675;51.538;6.728;2023-12-22T09:27:05;7.30;99.90
19085;DHT22;9675;51.538;6.728;2023-12-22T09:29:33;7.30;99.90
19085;DHT22;9675;51.538;6.728;2023-12-22T09:32:01;7.30;99.90
19085;DHT22;9675;51.538;6.728;2023-12-22T09:34:28;7.30;99.90
19085;DHT22;9675;51.538;6.728;2023-12-22T09:36:55;7.30;99.90
19085;DHT22;9675;51.538;6.728;2023-12-22T09:39:23;7.30;99.90
19085;DHT22;9675;51.538;6.728;2023-12-22T09:41:50;7.30;99.90
19085;DHT22;9675;51.538;6.728;2023-12-22T09:44:19;7.40;99.90
19085;DHT22;9675;51.538;6.728;2023-12-22T09:46:50;7.30;99.90
19085;DHT22;9675;51.538;6.728;2023-12-22T09:49:18;7.40;99.90
19085;DHT22;9675;51.538;6.728;2023-12-22T09:51:47;7.40;99.90
19085;DHT22;9675;51.538;6.728;2023-12-22T09:54:16;7.40;99.90
19085;DHT22;9675;51.538;6.728;2023-12-22T09:56:46;7.40;99.90
19085;DHT22;9675;51.538;6.728;2023-12-22T09:59:15;7.50;99.90
19085;DHT22;9675;51.538;6.728;2023-12-22T10:01:45;7.50;99.90
19085;DHT22;9675;51.538;6.728;2023-12-22T10:04:16;7.50;99.90
19085;DHT22;9675;51.538;6.728;2023-12-22T10:06:44;7.50;99.90
19085;DHT22;9675;51.538;6.728;2023-12-22T10:09:15;7.50;99.90
19085;DHT22;9675;51.538;6.728;2023-12-22T10:11:44;7.50;99.90
19085;DHT22;9675;51.538;6.728;2023-12-22T10:14:13;7.50;99.90
19085;DHT22;9675;51.538;6.728;2023-12-22T10:16:49;7.50;99.90
19085;DHT22;9675;51.538;6.728;2023-12-22T10:19:16;7.50;99.90
19085;DHT22;9675;51.538;6.728;2023-12-22T10:21:43;7.50;99.90
19085;DHT22;9675;51.538;6.728;2023-12-22T10:24:37;7.50;99.90
19085;DHT22;9675;51.538;6.728;2023-12-22T10:27:07;7.60;99.90
19085;DHT22;9675;51.538;6.728;2023-12-22T10:29:35;7.60;99.90
19085;DHT22;9675;51.538;6.728;2023-12-22T10:32:04;7.60;99.90
19085;DHT22;9675;51.538;6.728;2023-12-22T10:34:32;7.60;99.90
19085;DHT22;9675;51.538;6.728;2023-12-22T10:37:00;7.70;99.90
19085;DHT22;9675;51.538;6.728;2023-12-22T10:39:28;7.70;99.90
19085;DHT22;9675;51.538;6.728;2023-12-22T10:41:55;7.70;99.90
19085;DHT22;9675;51.538;6.728;2023-12-22T10:44:24;7.70;99.90
19085;DHT22;9675;51.538;6.728;2023-12-22T10:46:52;7.70;99.90
19085;DHT22;9675;51.538;6.728;2023-12-22T10:49:22;7.80;99.90
19085;DHT22;9675;51.538;6.728;2023-12-22T10:51:50;7.70;99.90
19085;DHT22;9675;51.538;6.728;2023-12-22T10:54:18;7.80;99.90
19085;DHT22;9675;51.538;6.728;2023-12-22T10:56:45;7.80;99.90
19085;DHT22;9675;51.538;6.728;2023-12-22T10:59:16;7.70;99.90
19085;DHT22;9675;51.538;6.728;2023-12-22T11:01:45;7.80;99.90
19085;DHT22;9675;51.538;6.728;2023-12-22T11:04:22;7.70;99.90
19085;DHT22;9675;51.538;6.728;2023-12-22T11:06:57;7.70;99.90
19085;DHT22;9675;51.538;6.728;2023-12-22T11:09:26;7.70;99.90
19085;DHT22;9675;51.538;6.728;2023-12-22T11:11:59;7.70;99.90
19085;DHT22;9675;51.538;6.728;2023-12-22T11:14:29;7.70;99.90
19085;DHT22;9675;51.538;6.728;2023-12-22T11:17:00;7.70;99.90
19085;DHT22;9675;51.538;6.728;2023-12-22T11:19:30;7.70;99.90
19085;DHT22;9675;51.538;6.728;2023-12-22T11:22:01;7.70;99.90
19085;DHT22;9675;51.538;6.728;2023-12-22T11:24:31;7.70;99.90
19085;DHT22;9675;51.538;6.728;2023-12-22T11:27:01;7.70;99.90
19085;DHT22;9675;51.538;6.728;2023-12-22T11:29:31;7.70;99.90
19085;DHT22;9675;51.538;6.728;2023-12-22T11:32:03;7.80;99.90
19085;DHT22;9675;51.538;6.728;2023-12-22T11:34:36;7.80;99.90
19085;DHT22;9675;51.538;6.728;2023-12-22T11:37:06;7.80;99.90
19085;DHT22;9675;51.538;6.728;2023-12-22T11:39:34;7.80;99.90
19085;DHT22;9675;51.538;6.728;2023-12-22T11:42:03;7.90;99.90
19085;DHT22;9675;51.538;6.728;2023-12-22T11:44:32;8.00;99.90
19085;DHT22;9675;51.538;6.728;2023-12-22T11:47:05;8.00;99.90
19085;DHT22;9675;51.538;6.728;2023-12-22T11:49:35;8.00;99.90
19085;DHT22;9675;51.538;6.728;2023-12-22T11:52:10;8.10;99.90
19085;DHT22;9675;51.538;6.728;2023-12-22T11:54:44;8.10;99.90
19085;DHT22;9675;51.538;6.728;2023-12-22T11:57:36;8.10;99.90
19085;DHT22;9675;51.538;6.728;2023-12-22T12:00:07;8.20;99.90
19085;DHT22;9675;51.538;6.728;2023-12-22T12:02:57;8.20;99.90
19085;DHT22;9675;51.538;6.728;2023-12-22T12:05:25;8.20;99.90
19085;DHT22;9675;51.538;6.728;2023-12-22T12:07:52;8.30;99.90
19085;DHT22;9675;51.538;6.728;2023-12-22T12:10:51;8.30;99.90
19085;DHT22;9675;51.538;6.728;2023-12-22T12:13:22;8.40;99.90
19085;DHT22;9675;51.538;6.728;2023-12-22T12:15:51;8.40;99.90
19085;DHT22;9675;51.538;6.728;2023-12-22T12:18:22;8.40;99.90
19085;DHT22;9675;51.538;6.728;2023-12-22T12:20:51;8.50;99.90
19085;DHT22;9675;51.538;6.728;2023-12-22T12:23:18;8.50;99.90
19085;DHT22;9675;51.538;6.728;2023-12-22T12:25:47;8.50;99.90
19085;DHT22;9675;51.538;6.728;2023-12-22T12:28:15;8.50;99.90
19085;DHT22;9675;51.538;6.728;2023-12-22T12:30:43;8.50;99.90
19085;DHT22;9675;51.538;6.728;2023-12-22T12:33:12;8.60;99.90
19085;DHT22;9675;51.538;6.728;2023-12-22T12:35:41;8.60;99.90
19085;DHT22;9675;51.538;6.728;2023-12-22T12:38:10;8.60;99.90
19085;DHT22;9675;51.538;6.728;2023-12-22T12:40:40;8.60;99.90
19085;DHT22;9675;51.538;6.728;2023-12-22T12:43:07;8.60;99.90
19085;DHT22;9675;51.538;6.728;2023-12-22T12:45:34;8.60;99.90
19085;DHT22;9675;51.538;6.728;2023-12-22T12:48:02;8.60;99.90
19085;DHT22;9675;51.538;6.728;2023-12-22T12:50:30;8.60;99.90
19085;DHT22;9675;51.538;6.728;2023-12-22T12:52:57;8.60;99.90
19085;DHT22;9675;51.538;6.728;2023-12-22T12:55:26;8.60;99.90
19085;DHT22;9675;51.538;6.728;2023-12-22T12:57:54;8.70;99.90
19085;DHT22;9675;51.538;6.728;2023-12-22T13:00:26;8.70;99.90
19085;DHT22;9675;51.538;6.728;2023-12-22T13:02:54;8.60;99.90
19085;DHT22;9675;51.538;6.728;2023-12-22T13:05:22;8.60;99.90
19085;DHT22;9675;51.538;6.728;2023-12-22T13:07:50;8.70;99.90
19085;DHT22;9675;51.538;6.728;2023-12-22T13:10:21;8.70;99.90
19085;DHT22;9675;51.538;6.728;2023-12-22T13:12:50;8.70;99.90
19085;DHT22;9675;51.538;6.728;2023-12-22T13:15:19;8.70;99.90
19085;DHT22;9675;51.538;6.728;2023-12-22T13:17:47;8.70;99.90
19085;DHT22;9675;51.538;6.728;2023-12-22T13:20:15;8.70;99.90
19085;DHT22;9675;51.538;6.728;2023-12-22T13:22:42;8.70;99.90
19085;DHT22;9675;51.538;6.728;2023-12-22T13:25:10;8.70;99.90
19085;DHT22;9675;51.538;6.728;2023-12-22T13:27:44;8.70;99.90
19085;DHT22;9675;51.538;6.728;2023-12-22T13:30:14;8.70;99.90
19085;DHT22;9675;51.538;6.728;2023-12-22T13:32:42;8.70;99.90
19085;DHT22;9675;51.538;6.728;2023-12-22T13:35:09;8.70;99.90
19085;DHT22;9675;51.538;6.728;2023-12-22T13:37:41;8.80;99.90
19085;DHT22;9675;51.538;6.728;2023-12-22T13:40:10;8.80;99.90
19085;DHT22;9675;51.538;6.728;2023-12-22T13:42:38;8.80;99.90
19085;DHT22;9675;51.538;6.728;2023-12-22T13:45:10;8.80;99.90
19085;DHT22;9675;51.538;6.728;2023-12-22T13:47:42;8.80;99.90
19085;DHT22;9675;51.538;6.728;2023-12-22T13:50:15;8.90;99.90
19085;DHT22;9675;51.538;6.728;2023-12-22T13:52:42;8.90;99.90
19085;DHT22;9675;51.538;6.728;2023-12-22T13:55:11;8.90;99.90
19085;DHT22;9675;51.538;6.728;2023-12-22T13:57:39;8.90;99.90
19085;DHT22;9675;51.538;6.728;2023-12-22T14:00:24;8.90;99.90
19085;DHT22;9675;51.538;6.728;2023-12-22T14:02:53;8.90;99.90
19085;DHT22;9675;51.538;6.728;2023-12-22T14:05:20;9.00;99.90
19085;DHT22;9675;51.538;6.728;2023-12-22T14:07:47;9.00;99.90
19085;DHT22;9675;51.538;6.728;2023-12-22T14:10:15;8.90;99.90
19085;DHT22;9675;51.538;6.728;2023-12-22T14:12:42;8.90;99.90
19085;DHT22;9675;51.538;6.728;2023-12-22T14:15:10;9.00;99.90
19085;DHT22;9675;51.538;6.728;2023-12-22T14:17:38;9.00;99.90
19085;DHT22;9675;51.538;6.728;2023-12-22T14:20:10;9.00;99.90
19085;DHT22;9675;51.538;6.728;2023-12-22T14:22:39;9.10;99.90
19085;DHT22;9675;51.538;6.728;2023-12-22T14:25:08;9.10;99.90
19085;DHT22;9675;51.538;6.728;2023-12-22T14:27:35;9.10;99.90
19085;DHT22;9675;51.538;6.728;2023-12-22T14:30:03;9.10;99.90
19085;DHT22;9675;51.538;6.728;2023-12-22T14:32:32;9.10;99.90
19085;DHT22;9675;51.538;6.728;2023-12-22T14:35:00;9.10;99.90
19085;DHT22;9675;51.538;6.728;2023-12-22T14:37:31;9.10;99.90
19085;DHT22;9675;51.538;6.728;2023-12-22T14:40:00;9.10;99.90
19085;DHT22;9675;51.538;6.728;2023-12-22T14:42:28;9.20;99.90
19085;DHT22;9675;51.538;6.728;2023-12-22T14:44:57;9.10;99.90
19085;DHT22;9675;51.538;6.728;2023-12-22T14:47:27;9.20;99.90
19085;DHT22;9675;51.538;6.728;2023-12-22T14:49:56;9.20;99.90
19085;DHT22;9675;51.538;6.728;2023-12-22T14:52:25;9.20;99.90
19085;DHT22;9675;51.538;6.728;2023-12-22T14:54:54;9.20;99.90
19085;DHT22;9675;51.538;6.728;2023-12-22T14:57:21;9.20;99.90
19085;DHT22;9675;51.538;6.728;2023-12-22T14:59:48;9.20;99.90
19085;DHT22;9675;51.538;6.728;2023-12-22T15:02:15;9.20;99.90
19085;DHT22;9675;51.538;6.728;2023-12-22T15:04:42;9.20;99.90
19085;DHT22;9675;51.538;6.728;2023-12-22T15:07:09;9.30;99.90
19085;DHT22;9675;51.538;6.728;2023-12-22T15:09:39;9.20;99.90
19085;DHT22;9675;51.538;6.728;2023-12-22T15:12:08;9.20;99.90
19085;DHT22;9675;51.538;6.728;2023-12-22T15:14:35;9.30;99.90
19085;DHT22;9675;51.538;6.728;2023-12-22T15:17:02;9.30;99.90
19085;DHT22;9675;51.538;6.728;2023-12-22T15:19:29;9.20;99.90
19085;DHT22;9675;51.538;6.728;2023-12-22T15:21:57;9.20;99.90
19085;DHT22;9675;51.538;6.728;2023-12-22T15:24:24;9.20;99.90
19085;DHT22;9675;51.538;6.728;2023-12-22T15:26:51;9.20;99.90
19085;DHT22;9675;51.538;6.728;2023-12-22T15:29:20;9.20;99.90
19085;DHT22;9675;51.538;6.728;2023-12-22T15:31:47;9.20;99.90
19085;DHT22;9675;51.538;6.728;2023-12-22T15:34:15;9.20;99.90
19085;DHT22;9675;51.538;6.728;2023-12-22T15:36:42;9.20;99.90
19085;DHT22;9675;51.538;6.728;2023-12-22T15:39:13;9.20;99.90
19085;DHT22;9675;51.538;6.728;2023-12-22T15:41:40;9.20;99.90
19085;DHT22;9675;51.538;6.728;2023-12-22T15:44:07;9.20;99.90
19085;DHT22;9675;51.538;6.728;2023-12-22T15:46:35;9.20;99.90
19085;DHT22;9675;51.538;6.728;2023-12-22T15:49:02;9.20;99.90
19085;DHT22;9675;51.538;6.728;2023-12-22T15:51:29;9.20;99.90
19085;DHT22;9675;51.538;6.728;2023-12-22T15:53:57;9.20;99.90
19085;DHT22;9675;51.538;6.728;2023-12-22T15:56:25;9.30;99.90
19085;DHT22;9675;51.538;6.728;2023-12-22T15:58:52;9.20;99.90
19085;DHT22;9675;51.538;6.728;2023-12-22T16:01:19;9.30;99.90
19085;DHT22;9675;51.538;6.728;2023-12-22T16:03:48;9.30;99.90
19085;DHT22;9675;51.538;6.728;2023-12-22T16:06:16;9.30;99.90
19085;DHT22;9675;51.538;6.728;2023-12-22T16:08:43;9.30;99.90
19085;DHT22;9675;51.538;6.728;2023-12-22T16:11:10;9.30;99.90